createdAt,value
2022-12-31T00:01:28.065Z,2.85
2022-12-31T00:03:55.911Z,4.00
2022-12-31T00:06:24.315Z,3.05
2022-12-31T00:08:52.008Z,2.92
2022-12-31T00:11:19.022Z,2.22
2022-12-31T00:13:46.676Z,4.00
2022-12-31T00:16:19.829Z,3.85
2022-12-31T00:18:48.327Z,2.58
2022-12-31T00:21:15.912Z,4.38
2022-12-31T00:23:42.770Z,3.28
2022-12-31T00:26:12.188Z,5.38
2022-12-31T00:28:39.548Z,3.58
2022-12-31T00:31:10.723Z,3.88
2022-12-31T00:33:37.553Z,3.97
2022-12-31T00:36:09.533Z,4.38
2022-12-31T00:38:37.364Z,3.22
2022-12-31T00:41:04.526Z,5.13
2022-12-31T00:43:31.301Z,6.90
2022-12-31T00:45:57.847Z,3.55
2022-12-31T00:48:24.368Z,2.60
2022-12-31T00:50:50.978Z,4.88
2022-12-31T00:53:17.397Z,4.82
2022-12-31T00:55:44.511Z,3.45
2022-12-31T00:58:10.917Z,4.35
2022-12-31T01:00:38.453Z,2.85
2022-12-31T01:03:05.959Z,2.45
2022-12-31T01:05:34.217Z,3.97
2022-12-31T01:08:01.099Z,3.03
2022-12-31T01:10:46.689Z,4.68
2022-12-31T01:13:13.105Z,3.58
2022-12-31T01:15:39.694Z,2.50
2022-12-31T01:18:07.984Z,2.22
2022-12-31T01:20:38.888Z,3.55
2022-12-31T01:23:06.520Z,4.10
2022-12-31T01:25:37.445Z,2.63
2022-12-31T01:28:05.169Z,2.50
2022-12-31T01:30:32.553Z,4.93
2022-12-31T01:32:59.114Z,5.10
2022-12-31T01:35:25.855Z,4.40
2022-12-31T01:37:52.294Z,3.17
2022-12-31T01:40:18.746Z,3.45
2022-12-31T01:42:45.175Z,2.13
2022-12-31T01:45:13.717Z,3.28
2022-12-31T01:47:46.405Z,4.00
2022-12-31T01:50:18.078Z,4.15
2022-12-31T01:52:48.222Z,3.42
2022-12-31T01:55:33.246Z,5.38
2022-12-31T01:58:08.057Z,2.42
2022-12-31T02:00:35.066Z,2.08
2022-12-31T02:03:02.668Z,3.22
2022-12-31T02:05:41.311Z,4.60
2022-12-31T02:08:08.346Z,3.33
2022-12-31T02:10:35.569Z,2.97
2022-12-31T02:13:02.524Z,3.95
2022-12-31T02:15:48.180Z,5.25
2022-12-31T02:18:40.764Z,3.33
2022-12-31T02:21:25.613Z,2.60
2022-12-31T02:24:18.201Z,4.10
2022-12-31T02:29:25.627Z,4.10
2022-12-31T02:32:12.733Z,2.80
2022-12-31T02:34:51.688Z,2.70
2022-12-31T02:37:23.327Z,4.05
2022-12-31T02:39:50.042Z,6.43
2022-12-31T02:42:16.452Z,2.75
2022-12-31T02:44:43.163Z,3.25
2022-12-31T02:47:09.529Z,3.95
2022-12-31T02:50:17.390Z,7.25
2022-12-31T02:52:55.000Z,3.72
2022-12-31T02:55:31.281Z,3.05
2022-12-31T02:58:45.431Z,2.63
2022-12-31T03:01:34.834Z,3.28
2022-12-31T03:04:25.173Z,1.08
2022-12-31T03:06:53.303Z,2.78
2022-12-31T03:09:19.831Z,1.45
2022-12-31T03:12:05.381Z,4.20
2022-12-31T03:14:31.838Z,2.83
2022-12-31T03:16:58.363Z,2.78
2022-12-31T03:19:43.171Z,2.63
2022-12-31T03:22:27.544Z,3.50
2022-12-31T03:25:28.164Z,2.85
2022-12-31T03:27:56.093Z,2.88
2022-12-31T03:30:23.760Z,3.08
2022-12-31T03:32:51.273Z,1.92
2022-12-31T03:35:20.462Z,3.03
2022-12-31T03:37:48.038Z,3.97
2022-12-31T03:40:15.601Z,3.95
2022-12-31T03:42:42.795Z,2.17
2022-12-31T03:45:10.798Z,3.92
2022-12-31T03:47:37.357Z,7.38
2022-12-31T03:50:05.964Z,2.75
2022-12-31T03:52:32.420Z,4.97
2022-12-31T03:54:59.576Z,3.30
2022-12-31T03:57:26.129Z,2.20
2022-12-31T03:59:52.772Z,3.38
2022-12-31T04:02:22.034Z,2.08
2022-12-31T04:04:52.947Z,4.50
2022-12-31T04:07:19.406Z,2.08
2022-12-31T04:09:45.899Z,2.60
2022-12-31T04:12:12.665Z,5.50
2022-12-31T04:14:39.087Z,1.10
2022-12-31T04:17:05.560Z,5.15
2022-12-31T04:19:32.535Z,1.50
2022-12-31T04:21:58.984Z,1.02
2022-12-31T04:24:25.687Z,3.22
2022-12-31T04:26:52.156Z,3.25
2022-12-31T04:29:18.670Z,2.85
2022-12-31T04:31:45.664Z,4.00
2022-12-31T04:34:12.202Z,2.60
2022-12-31T04:36:38.637Z,2.20
2022-12-31T04:39:05.161Z,4.53
2022-12-31T04:41:32.041Z,2.22
2022-12-31T04:43:59.497Z,2.55
2022-12-31T04:46:28.993Z,3.97
2022-12-31T04:48:56.068Z,2.60
2022-12-31T04:51:23.863Z,2.30
2022-12-31T04:53:50.441Z,3.25
2022-12-31T04:56:17.287Z,5.43
2022-12-31T04:58:44.179Z,4.57
2022-12-31T05:01:12.064Z,2.75
2022-12-31T05:03:39.078Z,2.97
2022-12-31T05:06:08.259Z,5.03
2022-12-31T05:08:34.799Z,3.22
2022-12-31T05:11:01.378Z,3.75
2022-12-31T05:13:32.931Z,2.80
2022-12-31T05:16:00.778Z,3.25
2022-12-31T05:18:27.694Z,3.25
2022-12-31T05:20:54.102Z,3.00
2022-12-31T05:23:20.540Z,6.50
2022-12-31T05:25:48.327Z,3.45
2022-12-31T05:28:15.968Z,2.40
2022-12-31T05:30:43.553Z,3.13
2022-12-31T05:33:10.574Z,2.35
2022-12-31T05:35:37.150Z,2.53
2022-12-31T05:38:03.821Z,2.03
2022-12-31T05:40:30.686Z,2.33
2022-12-31T05:42:57.396Z,2.55
2022-12-31T05:45:30.179Z,1.90
2022-12-31T05:47:57.405Z,3.72
2022-12-31T05:50:24.051Z,2.50
2022-12-31T05:52:55.707Z,1.60
2022-12-31T05:55:22.277Z,2.05
2022-12-31T05:57:48.851Z,2.10
2022-12-31T06:00:15.819Z,2.38
2022-12-31T06:02:42.875Z,1.92
2022-12-31T06:05:09.627Z,2.08
2022-12-31T06:07:36.186Z,2.00
2022-12-31T06:10:04.791Z,2.35
2022-12-31T06:12:31.363Z,2.47
2022-12-31T06:14:57.888Z,1.67
2022-12-31T06:17:24.456Z,1.52
2022-12-31T06:19:50.942Z,2.20
2022-12-31T06:22:17.495Z,1.38
2022-12-31T06:24:43.995Z,1.38
2022-12-31T06:27:11.055Z,2.25
2022-12-31T06:29:37.744Z,2.00
2022-12-31T06:32:04.515Z,2.63
2022-12-31T06:34:30.985Z,2.15
2022-12-31T06:36:58.315Z,2.20
2022-12-31T06:39:25.039Z,3.17
2022-12-31T06:41:51.473Z,2.80
2022-12-31T06:44:18.029Z,2.53
2022-12-31T06:46:44.567Z,2.78
2022-12-31T06:49:11.131Z,2.72
2022-12-31T06:51:37.659Z,2.72
2022-12-31T06:54:04.113Z,2.40
2022-12-31T06:56:34.564Z,4.88
2022-12-31T06:59:03.271Z,2.58
2022-12-31T07:01:49.239Z,4.75
2022-12-31T07:04:45.113Z,4.90
2022-12-31T07:07:20.521Z,3.08
2022-12-31T07:10:00.315Z,3.47
2022-12-31T07:12:42.073Z,2.95
2022-12-31T07:15:36.394Z,2.40
2022-12-31T07:18:29.081Z,2.85
2022-12-31T07:20:58.270Z,2.40
2022-12-31T07:23:25.298Z,1.95
2022-12-31T07:26:01.848Z,2.65
2022-12-31T07:28:36.284Z,2.90
2022-12-31T07:31:39.215Z,3.50
2022-12-31T07:34:24.566Z,2.58
2022-12-31T07:37:07.608Z,0.90
2022-12-31T07:39:58.409Z,0.55
2022-12-31T07:42:36.969Z,0.85
2022-12-31T07:45:08.839Z,2.20
2022-12-31T07:47:35.602Z,3.00
2022-12-31T07:50:02.357Z,0.20
2022-12-31T07:52:29.125Z,0.98
2022-12-31T07:54:55.579Z,1.88
2022-12-31T07:57:27.692Z,0.60
2022-12-31T08:00:14.654Z,0.35
2022-12-31T08:03:09.317Z,1.15
2022-12-31T08:05:57.688Z,2.58
2022-12-31T08:08:53.859Z,1.48
2022-12-31T08:11:30.530Z,0.80
2022-12-31T08:14:01.793Z,2.45
2022-12-31T08:16:28.827Z,2.00
2022-12-31T08:18:55.751Z,0.80
2022-12-31T08:21:37.123Z,3.85
2022-12-31T08:24:25.849Z,0.50
2022-12-31T08:27:24.998Z,1.02
2022-12-31T08:30:05.336Z,1.58
2022-12-31T08:32:39.888Z,2.42
2022-12-31T08:35:35.982Z,1.55
2022-12-31T08:38:43.515Z,2.75
2022-12-31T08:41:20.855Z,3.72
2022-12-31T08:43:59.295Z,0.75
2022-12-31T08:46:31.304Z,1.65
2022-12-31T08:48:58.029Z,0.68
2022-12-31T08:51:26.665Z,2.55
2022-12-31T08:53:53.513Z,1.25
2022-12-31T08:56:30.658Z,1.23
2022-12-31T08:59:11.972Z,0.85
2022-12-31T09:01:58.988Z,3.67
2022-12-31T09:04:48.875Z,1.33
2022-12-31T09:07:17.906Z,0.93
2022-12-31T09:10:03.677Z,5.40
2022-12-31T09:12:39.724Z,5.90
2022-12-31T09:15:20.052Z,1.27
2022-12-31T09:17:49.643Z,1.23
2022-12-31T09:20:36.358Z,1.70
2022-12-31T09:23:08.860Z,1.33
2022-12-31T09:26:01.162Z,1.20
2022-12-31T09:31:17.153Z,2.17
2022-12-31T09:34:14.979Z,2.35
2022-12-31T09:37:15.335Z,3.63
2022-12-31T09:39:47.604Z,3.80
2022-12-31T09:42:45.012Z,3.30
2022-12-31T09:45:24.651Z,2.78
2022-12-31T09:48:09.149Z,5.63
2022-12-31T09:51:02.488Z,1.85
2022-12-31T09:53:50.528Z,2.42
2022-12-31T09:56:29.079Z,2.95
2022-12-31T09:59:23.428Z,3.78
2022-12-31T10:01:59.003Z,4.30
2022-12-31T10:04:38.708Z,3.83
2022-12-31T10:07:28.109Z,2.78
2022-12-31T10:09:59.475Z,4.55
2022-12-31T10:12:42.690Z,9.43
2022-12-31T10:15:52.988Z,3.92
2022-12-31T10:18:36.501Z,6.97
2022-12-31T10:21:36.268Z,3.25
2022-12-31T10:24:08.439Z,2.78
2022-12-31T10:27:14.058Z,1.23
2022-12-31T10:29:54.922Z,3.90
2022-12-31T10:32:44.071Z,4.03
2022-12-31T10:35:42.833Z,4.47
2022-12-31T10:38:32.067Z,3.42
2022-12-31T10:41:30.760Z,3.20
2022-12-31T10:44:21.913Z,3.28
2022-12-31T10:47:19.626Z,4.45
2022-12-31T10:50:04.386Z,3.92
2022-12-31T10:52:55.488Z,4.60
2022-12-31T10:55:40.779Z,4.20
2022-12-31T10:58:36.942Z,2.67
2022-12-31T11:01:33.609Z,4.10
2022-12-31T11:04:37.357Z,4.40
2022-12-31T11:07:46.450Z,4.53
2022-12-31T11:10:40.798Z,4.03
2022-12-31T11:13:19.607Z,4.28
2022-12-31T11:16:10.067Z,3.08
2022-12-31T11:18:56.817Z,5.40
2022-12-31T11:21:41.358Z,4.85
2022-12-31T11:24:51.126Z,3.90
2022-12-31T11:27:38.579Z,5.75
2022-12-31T11:30:45.682Z,4.85
2022-12-31T11:33:21.315Z,5.18
2022-12-31T11:36:13.707Z,4.90
2022-12-31T11:41:21.218Z,2.63
2022-12-31T11:44:15.799Z,8.15
2022-12-31T11:47:03.647Z,7.95
2022-12-31T11:49:52.026Z,3.78
2022-12-31T11:52:33.736Z,3.45
2022-12-31T11:55:23.145Z,6.97
2022-12-31T11:57:50.991Z,3.17
2022-12-31T12:00:20.838Z,3.22
2022-12-31T12:02:51.949Z,4.40
2022-12-31T12:05:21.804Z,6.10
2022-12-31T12:07:50.113Z,7.15
2022-12-31T12:10:35.290Z,6.95
2022-12-31T12:13:16.942Z,7.53
2022-12-31T12:15:47.983Z,4.68
2022-12-31T12:18:24.666Z,5.43
2022-12-31T12:20:51.237Z,5.00
2022-12-31T12:23:25.571Z,1.98
2022-12-31T12:25:52.877Z,3.67
2022-12-31T12:28:26.530Z,6.13
2022-12-31T12:30:56.606Z,6.43
2022-12-31T12:33:23.555Z,3.97
2022-12-31T12:35:50.992Z,3.28
2022-12-31T12:38:21.239Z,5.70
2022-12-31T12:41:00.392Z,7.07
2022-12-31T12:43:33.165Z,4.60
2022-12-31T12:46:02.329Z,4.53
2022-12-31T12:48:38.340Z,7.15
2022-12-31T12:51:33.919Z,4.57
2022-12-31T12:54:12.819Z,6.03
2022-12-31T12:56:57.129Z,4.72
2022-12-31T12:59:48.586Z,6.03
2022-12-31T13:02:21.295Z,2.33
2022-12-31T13:05:28.258Z,4.90
2022-12-31T13:08:33.781Z,4.43
2022-12-31T13:11:06.641Z,5.93
2022-12-31T13:14:10.582Z,7.13
2022-12-31T13:16:47.024Z,3.92
2022-12-31T13:19:22.289Z,4.25
2022-12-31T13:21:48.703Z,2.72
2022-12-31T13:24:36.931Z,4.88
2022-12-31T13:27:06.416Z,2.53
2022-12-31T13:29:35.778Z,8.10
2022-12-31T13:32:07.116Z,6.22
2022-12-31T13:34:41.611Z,4.75
2022-12-31T13:37:28.328Z,3.25
2022-12-31T13:40:05.742Z,4.55
2022-12-31T13:42:53.029Z,5.97
2022-12-31T13:45:32.072Z,5.68
2022-12-31T13:48:06.259Z,6.57
2022-12-31T13:50:39.051Z,2.85
2022-12-31T13:53:26.690Z,7.30
2022-12-31T13:55:58.325Z,5.78
2022-12-31T13:58:40.857Z,11.52
2022-12-31T14:01:26.246Z,7.30
2022-12-31T14:04:03.879Z,6.47
2022-12-31T14:06:45.733Z,4.50
2022-12-31T14:09:33.798Z,8.48
2022-12-31T14:12:17.890Z,6.50
2022-12-31T14:14:49.680Z,5.15
2022-12-31T14:17:23.979Z,5.15
2022-12-31T14:20:16.391Z,4.57
2022-12-31T14:25:38.049Z,6.28
2022-12-31T14:28:06.650Z,7.85
2022-12-31T14:30:40.677Z,7.22
2022-12-31T14:33:34.776Z,5.32
2022-12-31T14:36:25.669Z,4.70
2022-12-31T14:39:14.042Z,7.50
2022-12-31T14:41:40.579Z,3.25
2022-12-31T14:44:25.734Z,4.53
2022-12-31T14:47:19.354Z,4.57
2022-12-31T14:49:57.874Z,4.15
2022-12-31T14:52:25.002Z,7.82
2022-12-31T14:55:09.846Z,6.63
2022-12-31T14:58:17.206Z,6.03
2022-12-31T15:00:33.291Z,5.57
2022-12-31T15:03:23.013Z,5.78
2022-12-31T15:06:25.641Z,8.95
2022-12-31T15:09:22.367Z,3.92
2022-12-31T15:12:16.108Z,12.23
2022-12-31T15:14:58.815Z,9.35
2022-12-31T15:18:12.584Z,6.43
2022-12-31T15:21:23.533Z,10.98
2022-12-31T15:23:50.174Z,10.18
2022-12-31T15:26:21.453Z,10.07
2022-12-31T15:29:06.557Z,17.52
2022-12-31T15:31:35.616Z,8.13
2022-12-31T15:34:07.765Z,8.57
2022-12-31T15:36:38.070Z,8.23
2022-12-31T15:39:12.300Z,8.68
2022-12-31T15:42:10.333Z,12.30
2022-12-31T15:44:45.073Z,9.85
2022-12-31T15:47:28.679Z,11.38
2022-12-31T15:49:55.694Z,15.60
2022-12-31T15:52:33.897Z,11.57
2022-12-31T15:55:03.881Z,10.40
2022-12-31T15:57:33.695Z,10.60
2022-12-31T16:00:02.064Z,13.77
2022-12-31T16:02:31.692Z,6.30
2022-12-31T16:04:58.253Z,7.68
2022-12-31T16:07:28.052Z,9.32
2022-12-31T16:09:57.796Z,4.43
2022-12-31T16:12:32.717Z,10.85
2022-12-31T16:15:01.778Z,11.05
2022-12-31T16:17:33.961Z,8.40
2022-12-31T16:20:02.283Z,12.02
2022-12-31T16:22:40.111Z,13.38
2022-12-31T16:27:54.966Z,11.63
2022-12-31T16:30:30.656Z,5.93
2022-12-31T16:33:03.341Z,11.85
2022-12-31T16:35:31.117Z,12.88
2022-12-31T16:38:20.635Z,9.60
2022-12-31T16:41:02.204Z,14.02
2022-12-31T16:43:39.113Z,10.65
2022-12-31T16:46:11.505Z,13.43
2022-12-31T16:48:38.513Z,9.88
2022-12-31T16:51:05.939Z,10.43
2022-12-31T16:53:36.324Z,19.70
2022-12-31T16:56:08.770Z,13.80
2022-12-31T16:58:39.847Z,10.27
2022-12-31T17:01:27.704Z,14.48
2022-12-31T17:04:04.820Z,8.35
2022-12-31T17:06:33.443Z,11.35
2022-12-31T17:09:05.116Z,9.90
2022-12-31T17:11:35.477Z,9.68
2022-12-31T17:14:08.239Z,11.63
2022-12-31T17:16:44.157Z,13.85
2022-12-31T17:19:43.252Z,12.80
2022-12-31T17:22:31.817Z,12.50
2022-12-31T17:25:15.452Z,9.90
2022-12-31T17:27:52.972Z,13.18
2022-12-31T17:30:32.684Z,9.27
2022-12-31T17:33:22.111Z,11.48
2022-12-31T17:35:54.466Z,13.10
2022-12-31T17:38:20.876Z,14.23
2022-12-31T17:40:52.082Z,8.85
2022-12-31T17:43:23.588Z,11.88
2022-12-31T17:45:52.552Z,9.82
2022-12-31T17:50:48.298Z,15.63
2022-12-31T17:53:15.091Z,11.55
2022-12-31T17:55:45.338Z,11.70
2022-12-31T17:58:35.358Z,10.43
2022-12-31T18:01:05.986Z,18.02
2022-12-31T18:03:32.532Z,20.15
2022-12-31T18:05:59.059Z,18.38
2022-12-31T18:08:25.551Z,12.52
2022-12-31T18:10:53.973Z,11.32
2022-12-31T18:13:23.789Z,11.65
2022-12-31T18:15:50.880Z,12.10
2022-12-31T18:18:26.487Z,13.48
2022-12-31T18:20:58.638Z,14.38
2022-12-31T18:23:33.552Z,13.55
2022-12-31T18:26:00.119Z,16.13
2022-12-31T18:28:27.364Z,17.92
2022-12-31T18:30:53.870Z,10.38
2022-12-31T18:33:25.647Z,10.32
2022-12-31T18:36:10.313Z,10.02
2022-12-31T18:38:37.177Z,12.25
2022-12-31T18:41:04.230Z,11.60
2022-12-31T18:43:30.820Z,12.00
2022-12-31T18:45:57.567Z,10.68
2022-12-31T18:48:24.412Z,7.68
2022-12-31T18:50:51.099Z,7.03
2022-12-31T18:53:22.895Z,7.90
2022-12-31T18:55:57.051Z,9.90
2022-12-31T18:58:24.014Z,14.18
2022-12-31T19:00:51.378Z,10.60
2022-12-31T19:03:23.497Z,14.27
2022-12-31T19:05:51.812Z,12.02
2022-12-31T19:08:20.010Z,13.77
2022-12-31T19:10:47.601Z,10.93
2022-12-31T19:13:16.429Z,13.60
2022-12-31T19:18:13.833Z,10.77
2022-12-31T19:20:41.229Z,9.60
2022-12-31T19:23:17.777Z,9.80
2022-12-31T19:25:44.782Z,11.43
2022-12-31T19:28:17.386Z,11.05
2022-12-31T19:30:44.169Z,9.68
2022-12-31T19:33:10.813Z,9.93
2022-12-31T19:35:38.410Z,12.43
2022-12-31T19:38:10.227Z,12.65
2022-12-31T19:40:36.737Z,6.97
2022-12-31T19:43:03.260Z,14.88
2022-12-31T19:45:29.946Z,13.25
2022-12-31T19:47:56.760Z,10.73
2022-12-31T19:50:26.597Z,8.63
2022-12-31T19:52:56.744Z,9.98
2022-12-31T19:55:27.796Z,10.48
2022-12-31T19:57:54.266Z,13.13
2022-12-31T20:00:21.628Z,13.85
2022-12-31T20:02:48.822Z,7.60
2022-12-31T20:05:17.068Z,10.13
2022-12-31T20:07:43.610Z,8.75
2022-12-31T20:10:10.933Z,9.48
2022-12-31T20:12:43.974Z,12.02
2022-12-31T20:15:11.163Z,14.27
2022-12-31T20:17:37.685Z,14.93
2022-12-31T20:20:05.578Z,11.38
2022-12-31T20:22:32.891Z,10.75
2022-12-31T20:24:59.385Z,8.48
2022-12-31T20:27:25.858Z,11.25
2022-12-31T20:29:52.449Z,11.52
2022-12-31T20:32:18.939Z,16.67
2022-12-31T20:34:45.465Z,8.13
2022-12-31T20:37:11.924Z,12.63
2022-12-31T20:39:38.393Z,8.70
2022-12-31T20:42:05.666Z,9.50
2022-12-31T20:44:32.164Z,8.57
2022-12-31T20:46:58.670Z,10.63
2022-12-31T20:49:44.811Z,16.92
2022-12-31T20:54:37.923Z,14.45
2022-12-31T20:57:04.958Z,10.15
2022-12-31T20:59:31.486Z,13.80
2022-12-31T21:04:45.275Z,12.10
2022-12-31T21:07:12.021Z,16.95
2022-12-31T21:09:38.431Z,12.43
2022-12-31T21:12:23.574Z,11.52
2022-12-31T21:14:50.086Z,12.82
2022-12-31T21:17:16.523Z,15.45
2022-12-31T21:19:42.945Z,13.93
2022-12-31T21:22:09.927Z,10.00
2022-12-31T21:24:36.356Z,15.63
2022-12-31T21:27:02.867Z,8.77
2022-12-31T21:29:34.295Z,10.23
2022-12-31T21:32:01.313Z,7.38
2022-12-31T21:34:28.462Z,13.93
2022-12-31T21:36:54.925Z,11.00
2022-12-31T21:39:21.401Z,14.07
2022-12-31T21:41:50.878Z,9.82
2022-12-31T21:44:20.724Z,12.00
2022-12-31T21:47:25.187Z,11.73
2022-12-31T21:49:35.469Z,10.65
2022-12-31T21:52:20.683Z,15.68
2022-12-31T21:55:06.215Z,13.68
2022-12-31T21:57:51.837Z,10.48
2022-12-31T22:03:24.265Z,15.60
2022-12-31T22:05:52.588Z,16.25
2022-12-31T22:08:21.081Z,11.43
2022-12-31T22:10:52.404Z,11.10
2022-12-31T22:13:20.701Z,12.23
2022-12-31T22:15:49.324Z,9.32
2022-12-31T22:18:16.606Z,9.48
2022-12-31T22:20:43.741Z,12.10
2022-12-31T22:23:10.288Z,11.90
2022-12-31T22:25:38.352Z,13.18
2022-12-31T22:28:37.637Z,10.10
2022-12-31T22:30:53.125Z,11.30
2022-12-31T22:33:20.331Z,12.93
2022-12-31T22:36:19.858Z,11.30
2022-12-31T22:38:47.476Z,10.60
2022-12-31T22:41:17.460Z,12.90
2022-12-31T22:43:46.657Z,9.45
2022-12-31T22:46:24.619Z,11.18
2022-12-31T22:48:53.853Z,11.60
2022-12-31T22:51:20.893Z,19.58
2022-12-31T22:53:47.897Z,12.70
2022-12-31T22:56:16.809Z,11.60
2022-12-31T22:58:43.810Z,9.82
2022-12-31T23:01:21.728Z,9.85
2022-12-31T23:03:49.916Z,11.82
2022-12-31T23:06:17.395Z,36.22
2022-12-31T23:09:03.806Z,56.22
2022-12-31T23:14:15.505Z,75.75
2022-12-31T23:17:00.335Z,83.22
2022-12-31T23:20:05.280Z,61.00
2022-12-31T23:22:50.547Z,46.15
2022-12-31T23:25:17.254Z,62.13
2022-12-31T23:27:44.169Z,52.13
2022-12-31T23:30:11.550Z,59.90
2022-12-31T23:32:38.067Z,56.33
2022-12-31T23:35:09.794Z,58.33
2022-12-31T23:37:36.904Z,30.10
2022-12-31T23:40:04.260Z,35.08
2022-12-31T23:42:30.736Z,28.50
2022-12-31T23:44:57.223Z,38.97
2022-12-31T23:47:23.724Z,24.63
2022-12-31T23:49:50.192Z,25.42
2022-12-31T23:52:16.661Z,25.52
2022-12-31T23:54:43.101Z,31.92
2022-12-31T23:57:09.656Z,22.95
2022-12-31T23:59:36.236Z,21.85
